Time;durP1;ratioP1;P1;durP2;ratioP2;P2;SDS_P1;SDS_P2;PMS_P1;PMS_P2;Temp;Humidity;BMP_temperature;BMP_pressure;BME280_temperature;BME280_humidity;BME280_pressure;Samples;Min_cycle;Max_cycle;Signal;HPM_P1;HPM_P2
2022/04/10 00:01:18;;;;;;;19.33;9.27;;;2.30;99.90;;;;;;4994062;28;20174;-79
2022/04/10 00:03:44;;;;;;;23.47;10.67;;;2.10;99.90;;;;;;4992199;28;20185;-80
2022/04/10 00:06:10;;;;;;;25.07;10.47;;;2.60;99.90;;;;;;4993774;28;20181;-80
2022/04/10 00:08:35;;;;;;;21.53;10.60;;;2.10;99.90;;;;;;4993578;28;20186;-80
2022/04/10 00:11:01;;;;;;;25.37;9.80;;;2.10;99.90;;;;;;4992737;28;20188;-79
2022/04/10 00:13:27;;;;;;;16.37;8.53;;;3.60;99.90;;;;;;5007704;28;20232;-79
2022/04/10 00:15:52;;;;;;;20.90;9.90;;;2.20;99.90;;;;;;4979757;28;20223;-79
2022/04/10 00:18:19;;;;;;;15.30;8.73;;;2.30;99.90;;;;;;5012279;28;20185;-79
2022/04/10 00:20:44;;;;;;;17.33;9.07;;;2.30;99.90;;;;;;4996106;28;20181;-79
2022/04/10 00:23:10;;;;;;;19.63;9.07;;;2.40;99.90;;;;;;4995993;28;20631;-80
2022/04/10 00:25:36;;;;;;;19.83;8.00;;;2.40;99.90;;;;;;5013129;28;20186;-79
2022/04/10 00:28:02;;;;;;;15.90;7.80;;;2.40;99.90;;;;;;4995633;28;20201;-80
2022/04/10 00:30:27;;;;;;;15.60;7.37;;;2.50;99.90;;;;;;5013273;28;20252;-80
2022/04/10 00:32:53;;;;;;;24.07;8.77;;;2.60;99.90;;;;;;4995849;28;20641;-80
2022/04/10 00:35:19;;;;;;;15.40;8.00;;;2.60;99.90;;;;;;5013417;28;20689;-80
2022/04/10 00:37:44;;;;;;;15.27;7.73;;;2.70;99.90;;;;;;4983313;28;20181;-80
2022/04/10 00:40:10;;;;;;;16.30;8.03;;;;;;;;;;4999653;28;20239;-80
2022/04/10 00:42:38;;;;;;;14.63;6.83;;;2.70;99.90;;;;;;4999599;28;20232;-80
2022/04/10 00:45:05;;;;;;;14.53;6.37;;;2.80;99.90;;;;;;5017273;28;20181;-80
2022/04/10 00:47:32;;;;;;;14.87;7.57;;;2.90;99.90;;;;;;4999475;28;20178;-80
2022/04/10 00:49:59;;;;;;;10.90;7.23;;;2.90;99.90;;;;;;5016835;28;20696;-80
2022/04/10 00:52:27;;;;;;;14.77;7.20;;;2.90;99.90;;;;;;5016868;28;20566;-80
2022/04/10 00:54:53;;;;;;;19.10;7.93;;;2.90;99.90;;;;;;5016877;28;20204;-81
2022/04/10 00:57:19;;;;;;;14.50;7.40;;;2.90;99.90;;;;;;5017105;28;20674;-80
2022/04/10 00:59:45;;;;;;;15.43;7.67;;;2.90;99.90;;;;;;5017247;28;20189;-80
2022/04/10 01:02:12;;;;;;;16.67;8.17;;;2.90;99.90;;;;;;5017185;28;20623;-80
2022/04/10 01:04:38;;;;;;;14.67;7.37;;;2.90;99.90;;;;;;5016898;28;20236;-80
2022/04/10 01:07:05;;;;;;;13.90;7.50;;;2.80;99.90;;;;;;5016791;28;20627;-80
2022/04/10 01:09:34;;;;;;;18.10;7.50;;;2.80;99.90;;;;;;5016362;28;20181;-81
2022/04/10 01:12:00;;;;;;;19.87;8.03;;;2.90;99.90;;;;;;4998872;28;20705;-80
2022/04/10 01:14:26;;;;;;;17.23;7.33;;;2.80;99.90;;;;;;5016752;28;20181;-80
2022/04/10 01:16:53;;;;;;;13.47;7.30;;;2.80;99.90;;;;;;5015041;28;20227;-80
2022/04/10 01:19:19;;;;;;;16.83;7.50;;;2.80;99.90;;;;;;5016702;28;20186;-80
2022/04/10 01:21:46;;;;;;;16.73;7.47;;;2.80;99.90;;;;;;5015900;28;20191;-80
2022/04/10 01:24:16;;;;;;;11.70;6.63;;;3.70;99.90;;;;;;4999200;28;20240;-80
2022/04/10 01:26:42;;;;;;;13.87;8.03;;;2.60;99.90;;;;;;4999025;28;20218;-80
2022/04/10 01:29:10;;;;;;;14.37;7.07;;;3.10;99.90;;;;;;5016749;28;20607;-80
2022/04/10 01:31:38;;;;;;;23.20;7.87;;;3.20;99.90;;;;;;5014787;28;20545;-80
2022/04/10 01:34:06;;;;;;;16.43;7.83;;;2.60;99.90;;;;;;5016327;28;20178;-80
2022/04/10 01:36:32;;;;;;;16.67;7.80;;;2.80;99.90;;;;;;5016027;28;20202;-81
2022/04/10 01:38:59;;;;;;;19.50;9.27;;;2.50;99.90;;;;;;4998562;28;20185;-81
2022/04/10 01:41:26;;;;;;;13.87;8.27;;;2.50;99.90;;;;;;5016232;28;20178;-80
2022/04/10 01:43:53;;;;;;;15.13;7.97;;;2.40;99.90;;;;;;4998353;28;20654;-80
2022/04/10 01:46:19;;;;;;;21.23;9.13;;;2.40;99.90;;;;;;5015762;28;20181;-78
2022/04/10 01:48:45;;;;;;;14.40;8.57;;;2.50;99.90;;;;;;5014572;28;20180;-79
2022/04/10 01:51:11;;;;;;;23.73;8.40;;;3.40;99.90;;;;;;5015987;28;20189;-80
2022/04/10 01:53:38;;;;;;;22.13;9.23;;;2.30;99.90;;;;;;5015801;28;20183;-80
2022/04/10 01:56:05;;;;;;;23.00;10.03;;;3.40;99.90;;;;;;5015960;28;20301;-79
2022/04/10 01:58:32;;;;;;;17.57;8.43;;;2.20;99.90;;;;;;5015629;28;20585;-80
2022/04/10 02:00:57;;;;;;;14.43;7.60;;;2.10;99.90;;;;;;4998669;28;20285;-80
2022/04/10 02:03:23;;;;;;;18.37;8.33;;;2.10;99.90;;;;;;5014543;28;20619;-80
2022/04/10 02:05:49;;;;;;;17.27;8.23;;;2.10;99.90;;;;;;4998273;28;20265;-80
2022/04/10 02:08:14;;;;;;;19.60;7.73;;;2.20;99.90;;;;;;5015769;28;20178;-80
2022/04/10 02:10:40;;;;;;;17.47;8.57;;;2.20;99.90;;;;;;5015042;28;20541;-81
2022/04/10 02:13:07;;;;;;;14.90;7.13;;;2.30;99.90;;;;;;5014142;28;20711;-80
2022/04/10 02:15:36;;;;;;;15.33;7.73;;;2.20;99.90;;;;;;4998126;28;20213;-80
2022/04/10 02:18:02;;;;;;;17.83;8.03;;;2.20;99.90;;;;;;5014964;28;20188;-80
2022/04/10 02:20:28;;;;;;;13.87;7.43;;;2.20;99.90;;;;;;5015187;28;20177;-79
2022/04/10 02:22:53;;;;;;;18.30;7.57;;;2.40;99.90;;;;;;5015099;28;20642;-80
2022/04/10 02:25:20;;;;;;;12.03;6.50;;;2.60;99.90;;;;;;4997815;28;20179;-80
2022/04/10 02:27:46;;;;;;;11.43;7.80;;;;;;;;;;5015004;28;20174;-80
2022/04/10 02:30:12;;;;;;;16.50;8.17;;;2.20;99.90;;;;;;5014930;28;20551;-80
2022/04/10 02:32:39;;;;;;;17.30;8.27;;;2.20;99.90;;;;;;5015172;28;20181;-80
2022/04/10 02:35:05;;;;;;;17.10;8.10;;;2.90;99.90;;;;;;5014795;28;20181;-80
2022/04/10 02:37:31;;;;;;;13.27;7.70;;;2.30;99.90;;;;;;5015107;28;20234;-80
2022/04/10 02:39:56;;;;;;;15.23;7.73;;;2.30;99.90;;;;;;5015075;28;20182;-80
2022/04/10 02:42:22;;;;;;;12.50;7.60;;;2.20;99.90;;;;;;5015285;28;20258;-80
2022/04/10 02:44:48;;;;;;;13.33;7.20;;;2.20;99.90;;;;;;5014475;28;20189;-80
2022/04/10 02:47:13;;;;;;;14.50;7.90;;;2.20;99.90;;;;;;5014619;28;20193;-80
2022/04/10 02:49:39;;;;;;;11.37;7.00;;;2.40;99.90;;;;;;4997727;28;20208;-80
2022/04/10 02:52:05;;;;;;;11.83;7.10;;;2.20;99.90;;;;;;4997159;28;20547;-80
2022/04/10 02:54:31;;;;;;;16.63;7.70;;;2.10;99.90;;;;;;5014865;28;20206;-80
2022/04/10 02:56:56;;;;;;;18.53;6.80;;;2.10;99.90;;;;;;4996761;28;20311;-80
2022/04/10 02:59:22;;;;;;;14.07;7.20;;;2.30;99.90;;;;;;5014128;28;20187;-80
2022/04/10 03:01:50;;;;;;;16.53;7.63;;;2.10;99.90;;;;;;4980654;28;20198;-80
2022/04/10 03:04:16;;;;;;;13.47;7.33;;;2.10;99.90;;;;;;5014983;28;20177;-80
2022/04/10 03:06:42;;;;;;;12.40;7.10;;;2.50;99.90;;;;;;4997153;28;20304;-80
2022/04/10 03:09:07;;;;;;;12.03;6.30;;;2.20;99.90;;;;;;4996591;28;20212;-80
2022/04/10 03:11:33;;;;;;;11.97;6.40;;;2.20;99.90;;;;;;4996823;28;20183;-80
2022/04/10 03:13:59;;;;;;;13.80;6.23;;;2.60;99.90;;;;;;4996177;28;20668;-80
2022/04/10 03:16:24;;;;;;;12.23;6.93;;;2.10;99.90;;;;;;5013032;28;20733;-81
2022/04/10 03:18:51;;;;;;;11.30;6.97;;;2.10;99.90;;;;;;4996830;28;20187;-80
2022/04/10 03:21:18;;;;;;;15.70;7.33;;;2.00;99.90;;;;;;5012987;28;20182;-80
2022/04/10 03:23:44;;;;;;;11.47;7.27;;;2.10;99.90;;;;;;4996538;28;20189;-80
2022/04/10 03:26:10;;;;;;;18.17;8.57;;;2.40;99.90;;;;;;5014274;28;20191;-80
2022/04/10 03:28:35;;;;;;;14.23;6.37;;;2.70;99.90;;;;;;5014186;28;20557;-80
2022/04/10 03:31:01;;;;;;;14.63;7.57;;;2.10;99.90;;;;;;4996497;28;20177;-81
2022/04/10 03:33:27;;;;;;;16.20;7.87;;;2.40;99.90;;;;;;5014519;28;20193;-79
2022/04/10 03:35:53;;;;;;;15.43;7.80;;;2.90;99.90;;;;;;5013640;28;20216;-79
2022/04/10 03:38:19;;;;;;;23.43;6.40;;;2.00;99.90;;;;;;5012873;28;20326;-79
2022/04/10 03:40:45;;;;;;;15.50;6.73;;;2.90;99.90;;;;;;5014204;28;20183;-79
2022/04/10 03:43:14;;;;;;;14.23;7.17;;;1.90;99.90;;;;;;5013904;28;20196;-79
2022/04/10 03:45:41;;;;;;;14.13;6.23;;;2.40;99.90;;;;;;5013864;28;20522;-80
2022/04/10 03:48:07;;;;;;;11.87;6.50;;;1.90;99.90;;;;;;5013791;28;20618;-80
2022/04/10 03:50:34;;;;;;;11.00;6.20;;;1.90;99.90;;;;;;5014003;28;20173;-79
2022/04/10 03:53:00;;;;;;;13.83;7.03;;;1.80;99.90;;;;;;5013798;28;20706;-78
2022/04/10 03:55:26;;;;;;;12.67;6.57;;;1.90;99.90;;;;;;5014016;28;20658;-81
2022/04/10 03:57:52;;;;;;;12.50;6.03;;;1.90;99.90;;;;;;4996249;28;20210;-85
2022/04/10 04:00:19;;;;;;;10.83;6.87;;;1.90;99.90;;;;;;4980049;28;20196;-81
2022/04/10 04:02:45;;;;;;;16.17;7.30;;;1.80;99.90;;;;;;5013730;28;20239;-81
2022/04/10 04:05:11;;;;;;;15.17;6.70;;;2.40;99.90;;;;;;4996083;28;20249;-80
2022/04/10 04:07:38;;;;;;;14.80;6.87;;;1.80;99.90;;;;;;5020109;28;20191;-79
2022/04/10 04:10:04;;;;;;;13.00;6.07;;;2.20;99.90;;;;;;5015516;28;20177;-80
2022/04/10 04:12:30;;;;;;;18.50;7.47;;;1.80;99.90;;;;;;5013755;28;20243;-80
2022/04/10 04:14:56;;;;;;;10.67;6.50;;;2.30;99.90;;;;;;5013570;28;20180;-80
2022/04/10 04:17:22;;;;;;;10.87;6.33;;;1.80;99.90;;;;;;5013683;28;20561;-80
2022/04/10 04:19:50;;;;;;;11.50;7.10;;;;;;;;;;5016750;28;20188;-79
2022/04/10 04:22:17;;;;;;;14.27;6.57;;;1.70;99.90;;;;;;5030662;28;20192;-80
2022/04/10 04:24:42;;;;;;;13.47;6.33;;;1.70;99.90;;;;;;5030818;28;20177;-80
2022/04/10 04:27:08;;;;;;;14.60;7.10;;;;;;;;;;5031128;28;20191;-79
2022/04/10 04:29:34;;;;;;;11.93;6.77;;;1.80;99.90;;;;;;5000133;28;20209;-82
2022/04/10 04:32:00;;;;;;;12.17;6.93;;;;;;;;;;5020806;28;20212;-80
2022/04/10 04:34:26;;;;;;;13.57;6.67;;;1.80;99.90;;;;;;5013594;28;20183;-80
2022/04/10 04:36:52;;;;;;;14.47;5.97;;;1.80;99.90;;;;;;4979662;28;20260;-79
2022/04/10 04:39:18;;;;;;;11.80;6.23;;;1.80;99.90;;;;;;5012825;28;20189;-80
2022/04/10 04:41:44;;;;;;;16.00;6.73;;;2.90;99.90;;;;;;4995681;28;20186;-80
2022/04/10 04:44:09;;;;;;;12.60;5.90;;;1.90;99.90;;;;;;5012918;28;20616;-80
2022/04/10 04:46:35;;;;;;;12.67;6.03;;;2.00;99.90;;;;;;5013300;28;20605;-80
2022/04/10 04:49:01;;;;;;;11.80;5.80;;;2.10;99.90;;;;;;4995312;28;20616;-81
2022/04/10 04:51:27;;;;;;;12.13;6.07;;;1.90;99.90;;;;;;5012254;28;20239;-80
2022/04/10 04:53:53;;;;;;;11.17;5.33;;;2.90;99.90;;;;;;5013172;28;20181;-80
2022/04/10 04:56:19;;;;;;;13.53;6.03;;;2.20;99.90;;;;;;5012622;28;20931;-80
2022/04/10 04:58:47;;;;;;;11.03;6.67;;;;;;;;;;5013075;28;20178;-80
2022/04/10 05:01:14;;;;;;;12.47;5.90;;;;;;;;;;5012818;28;20185;-80
2022/04/10 05:03:40;;;;;;;13.73;7.33;;;;;;;;;;5013057;28;20185;-80
2022/04/10 05:06:05;;;;;;;16.63;7.40;;;2.40;99.90;;;;;;5012720;28;20269;-80
2022/04/10 05:08:31;;;;;;;13.30;5.97;;;2.40;99.90;;;;;;4979144;28;20231;-80
2022/04/10 05:10:58;;;;;;;16.33;6.70;;;2.70;99.90;;;;;;4995199;28;20257;-81
2022/04/10 05:13:23;;;;;;;12.13;6.30;;;3.80;99.90;;;;;;5012760;28;20254;-81
2022/04/10 05:15:49;;;;;;;17.93;6.90;;;;;;;;;;5012364;28;20596;-81
2022/04/10 05:18:17;;;;;;;12.43;6.10;;;2.60;99.90;;;;;;4994589;28;20211;-81
2022/04/10 05:20:43;;;;;;;15.40;6.50;;;2.70;99.90;;;;;;5012481;28;20188;-81
2022/04/10 05:23:09;;;;;;;15.57;6.77;;;2.60;99.90;;;;;;5014956;28;20267;-80
2022/04/10 05:25:36;;;;;;;12.23;5.97;;;2.60;99.90;;;;;;5015577;28;20193;-80
2022/04/10 05:28:02;;;;;;;14.83;6.63;;;;;;;;;;5003728;28;20188;-81
2022/04/10 05:30:28;;;;;;;12.80;6.80;;;2.80;99.90;;;;;;5023999;28;20180;-82
2022/04/10 05:32:53;;;;;;;13.60;5.87;;;6.20;99.90;;;;;;5024570;28;20191;-83
2022/04/10 05:35:19;;;;;;;12.60;6.37;;;2.90;99.90;;;;;;5034669;28;20182;-82
2022/04/10 05:37:45;;;;;;;12.43;6.07;;;2.70;99.90;;;;;;5017097;28;20215;-81
2022/04/10 05:40:11;;;;;;;12.73;6.17;;;3.00;99.90;;;;;;5017141;28;20544;-81
2022/04/10 05:42:46;;;;;;;12.27;6.00;;;2.60;99.90;;;;;;5017653;28;20205;-80
2022/04/10 05:45:12;;;;;;;13.73;6.67;;;2.70;99.90;;;;;;5034973;28;20179;-81
2022/04/10 05:47:39;;;;;;;12.17;6.63;;;3.90;99.90;;;;;;5017565;28;20281;-80
2022/04/10 05:50:09;;;;;;;14.37;6.80;;;2.60;99.90;;;;;;5017516;28;20186;-80
2022/04/10 05:52:43;;;;;;;17.57;7.13;;;2.60;99.90;;;;;;5035077;28;20169;-82
2022/04/10 05:55:10;;;;;;;11.83;6.27;;;;;;;;;;5034613;28;20181;-82
2022/04/10 05:57:36;;;;;;;9.67;5.57;;;2.70;99.90;;;;;;5034603;28;20214;-81
2022/04/10 06:00:05;;;;;;;11.20;6.47;;;3.30;99.90;;;;;;5034672;28;20657;-81
2022/04/10 06:02:32;;;;;;;11.87;5.83;;;2.70;99.90;;;;;;5013717;28;20172;-80
2022/04/10 06:04:57;;;;;;;11.27;5.07;;;4.40;99.90;;;;;;5034088;28;20561;-81
2022/04/10 06:07:23;;;;;;;13.13;5.80;;;2.90;99.90;;;;;;5016092;28;20279;-80
2022/04/10 06:09:49;;;;;;;9.83;5.27;;;3.00;99.90;;;;;;5034264;28;20195;-80
2022/04/10 06:12:15;;;;;;;14.07;5.40;;;3.10;99.90;;;;;;5033592;28;20220;-80
2022/04/10 06:14:41;;;;;;;17.80;7.10;;;4.70;99.90;;;;;;5016116;28;20193;-81
2022/04/10 06:17:07;;;;;;;7.97;5.33;;;3.30;99.90;;;;;;5034170;28;20197;-80
2022/04/10 06:19:34;;;;;;;8.87;5.30;;;3.40;99.90;;;;;;5034307;28;20283;-80
2022/04/10 06:21:59;;;;;;;9.87;5.67;;;3.40;99.90;;;;;;5033428;28;20181;-81
2022/04/10 06:24:27;;;;;;;9.93;6.03;;;3.40;99.90;;;;;;5034143;28;20628;-81
2022/04/10 06:26:53;;;;;;;9.17;5.67;;;3.50;99.90;;;;;;5034275;28;20284;-81
2022/04/10 06:29:19;;;;;;;11.70;6.80;;;3.70;99.90;;;;;;5016030;28;20535;-80
2022/04/10 06:31:45;;;;;;;8.80;5.27;;;4.60;99.90;;;;;;5016373;28;20186;-80
2022/04/10 06:34:11;;;;;;;15.47;6.27;;;3.80;99.90;;;;;;5014990;28;20172;-80
2022/04/10 06:36:38;;;;;;;11.23;6.13;;;3.80;99.90;;;;;;5034122;28;20231;-80
2022/04/10 06:39:04;;;;;;;8.60;4.40;;;4.00;99.90;;;;;;5034241;28;20177;-79
2022/04/10 06:41:29;;;;;;;13.13;5.20;;;4.10;99.90;;;;;;5033789;28;20192;-80
2022/04/10 06:43:55;;;;;;;8.30;5.03;;;4.20;99.90;;;;;;5034081;28;20589;-79
2022/04/10 06:46:21;;;;;;;11.23;4.83;;;4.20;99.90;;;;;;5033299;28;20639;-81
2022/04/10 06:48:47;;;;;;;16.33;4.97;;;4.30;99.90;;;;;;5033595;28;20203;-79
2022/04/10 06:51:13;;;;;;;8.80;5.10;;;4.40;99.90;;;;;;5033745;28;20215;-83
2022/04/10 06:53:38;;;;;;;11.47;5.63;;;4.60;99.90;;;;;;5015746;28;20234;-80
2022/04/10 06:56:04;;;;;;;10.97;6.43;;;4.60;99.90;;;;;;5033227;28;20224;-80
2022/04/10 06:58:30;;;;;;;11.83;5.37;;;;;;;;;;5033262;28;20266;-81
2022/04/10 07:00:56;;;;;;;7.03;3.40;;;;;;;;;;5033209;28;20260;-81
2022/04/10 07:03:22;;;;;;;12.53;5.07;;;4.80;99.90;;;;;;5033090;28;20283;-80
2022/04/10 07:05:49;;;;;;;11.60;4.97;;;5.00;99.90;;;;;;5016380;28;20188;-80
2022/04/10 07:08:15;;;;;;;10.87;4.60;;;;;;;;;;5016006;28;20181;-81
2022/04/10 07:10:41;;;;;;;9.40;3.90;;;5.10;99.90;;;;;;5033267;28;20254;-80
2022/04/10 07:13:07;;;;;;;10.00;3.70;;;5.20;99.90;;;;;;5033084;28;20657;-80
2022/04/10 07:15:32;;;;;;;7.07;3.77;;;5.50;99.90;;;;;;5033206;28;20192;-80
2022/04/10 07:17:58;;;;;;;7.50;3.47;;;;;;;;;;5033097;28;20184;-80
2022/04/10 07:20:25;;;;;;;11.63;3.87;;;5.50;99.90;;;;;;5033254;28;20183;-82
2022/04/10 07:25:35;;;;;;;7.50;4.13;;;5.60;99.90;;;;;;5032937;28;20195;-80
2022/04/10 07:28:01;;;;;;;8.27;3.83;;;5.50;99.90;;;;;;5013834;28;20192;-83
2022/04/10 07:30:27;;;;;;;11.80;3.57;;;5.60;99.90;;;;;;5013427;28;20181;-81
2022/04/10 07:32:55;;;;;;;9.97;3.70;;;5.50;99.90;;;;;;5013550;28;20722;-80
2022/04/10 07:35:21;;;;;;;12.97;3.63;;;5.50;99.90;;;;;;5013623;28;20184;-85
2022/04/10 07:37:47;;;;;;;7.50;3.63;;;;;;;;;;5013465;28;20747;-81
2022/04/10 07:40:14;;;;;;;11.93;4.10;;;5.70;99.90;;;;;;5013468;28;20182;-79
2022/04/10 07:42:40;;;;;;;13.57;3.47;;;;;;;;;;5028466;28;20267;-79
2022/04/10 07:45:07;;;;;;;9.03;3.57;;;5.90;99.90;;;;;;5031407;28;20184;-79
2022/04/10 07:47:32;;;;;;;11.30;3.33;;;6.10;99.90;;;;;;5033048;28;20176;-80
2022/04/10 07:49:58;;;;;;;10.67;3.07;;;6.20;99.90;;;;;;5028758;28;20189;-79
2022/04/10 07:52:24;;;;;;;11.03;5.00;;;6.20;99.90;;;;;;5023498;28;20585;-81
2022/04/10 07:54:52;;;;;;;3.87;2.67;;;;;;;;;;5019885;28;20181;-81
2022/04/10 07:57:18;;;;;;;11.33;3.40;;;6.30;99.90;;;;;;5020932;28;20225;-80
2022/04/10 07:59:44;;;;;;;10.30;3.00;;;6.30;99.90;;;;;;5004849;28;21042;-79
2022/04/10 08:02:11;;;;;;;8.87;2.90;;;6.30;99.90;;;;;;5021563;28;20287;-81
2022/04/10 08:04:38;;;;;;;10.83;3.43;;;6.30;99.90;;;;;;5023419;28;20267;-81
2022/04/10 08:07:04;;;;;;;7.53;2.90;;;6.40;99.90;;;;;;4986969;28;20184;-80
2022/04/10 08:09:29;;;;;;;8.83;2.07;;;6.40;99.90;;;;;;5005760;28;20173;-81
2022/04/10 08:11:55;;;;;;;7.67;2.50;;;6.40;99.90;;;;;;5020092;28;20692;-80
2022/04/10 08:14:21;;;;;;;9.97;2.93;;;6.50;99.90;;;;;;5022494;28;20179;-83
2022/04/10 08:16:46;;;;;;;6.00;2.47;;;6.50;99.90;;;;;;5002682;28;20733;-81
2022/04/10 08:19:12;;;;;;;6.00;2.30;;;6.60;99.90;;;;;;5003575;28;20199;-81
2022/04/10 08:21:38;;;;;;;3.10;2.00;;;6.70;99.90;;;;;;5004968;28;20181;-80
2022/04/10 08:24:04;;;;;;;6.63;2.60;;;6.80;99.90;;;;;;5030560;28;20259;-83
2022/04/10 08:26:32;;;;;;;6.20;2.07;;;6.80;99.90;;;;;;5032863;28;20216;-79
2022/04/10 08:28:57;;;;;;;10.00;2.70;;;6.90;99.90;;;;;;5014707;28;20173;-79
2022/04/10 08:31:24;;;;;;;10.50;3.00;;;7.00;99.90;;;;;;5014845;28;20741;-78
2022/04/10 08:33:51;;;;;;;5.07;2.10;;;7.10;99.90;;;;;;5014448;28;20195;-79
2022/04/10 08:36:17;;;;;;;7.77;2.40;;;7.10;99.90;;;;;;5014483;28;20254;-79
2022/04/10 08:38:42;;;;;;;7.47;2.20;;;7.20;99.90;;;;;;4998529;28;20184;-79
2022/04/10 08:41:09;;;;;;;5.23;2.70;;;7.40;99.90;;;;;;5033799;28;20191;-81
2022/04/10 08:43:36;;;;;;;6.53;2.50;;;7.40;99.90;;;;;;5033386;28;20176;-79
2022/04/10 08:46:04;;;;;;;8.27;2.40;;;7.40;99.90;;;;;;5017892;28;20709;-81
2022/04/10 08:48:31;;;;;;;6.83;2.40;;;7.60;99.90;;;;;;5000886;28;20536;-79
2022/04/10 08:50:57;;;;;;;4.13;2.13;;;7.60;99.90;;;;;;5015373;28;20181;-81
2022/04/10 08:53:26;;;;;;;8.50;2.37;;;7.70;99.90;;;;;;5034752;28;20192;-82
2022/04/10 08:55:52;;;;;;;4.77;2.20;;;7.80;98.00;;;;;;5035201;28;20898;-80
2022/04/10 08:58:21;;;;;;;6.50;2.10;;;7.70;93.20;;;;;;4994686;28;20172;-81
2022/04/10 09:00:47;;;;;;;7.17;3.33;;;7.70;92.90;;;;;;5009286;28;20731;-80
2022/04/10 09:03:13;;;;;;;7.83;2.00;;;7.60;94.80;;;;;;5022129;28;20181;-80
2022/04/10 09:05:40;;;;;;;6.07;2.33;;;7.60;93.70;;;;;;5036655;28;20175;-83
2022/04/10 09:08:09;;;;;;;6.67;2.50;;;7.70;97.90;;;;;;5054252;28;20768;-79
2022/04/10 09:10:59;;;;;;;9.20;2.67;;;7.80;94.50;;;;;;5037196;28;20188;-82
2022/04/10 09:13:46;;;;;;;5.60;2.23;;;7.90;96.80;;;;;;5051529;28;20231;-79
2022/04/10 09:16:23;;;;;;;11.07;2.40;;;8.00;98.20;;;;;;4998899;28;20215;-79
2022/04/10 09:18:54;;;;;;;10.40;2.40;;;7.60;97.70;;;;;;5032722;28;20184;-81
2022/04/10 09:21:22;;;;;;;8.83;2.20;;;7.60;98.00;;;;;;5029932;28;20683;-80
2022/04/10 09:23:57;;;;;;;5.60;2.30;;;7.80;99.90;;;;;;5036823;28;20176;-80
2022/04/10 09:26:23;;;;;;;7.10;2.20;;;;;;;;;;5002181;28;20207;-79
2022/04/10 09:28:50;;;;;;;6.00;1.83;;;8.10;97.30;;;;;;5035817;28;20180;-79
2022/04/10 09:31:33;;;;;;;4.30;2.10;;;8.10;96.60;;;;;;5019332;28;20203;-79
2022/04/10 09:34:05;;;;;;;7.67;2.63;;;8.00;94.70;;;;;;5030570;28;20181;-80
2022/04/10 09:36:31;;;;;;;6.57;2.20;;;8.00;96.30;;;;;;5016316;28;20247;-80
2022/04/10 09:38:57;;;;;;;8.07;2.37;;;8.30;93.90;;;;;;5016178;28;20252;-80
2022/04/10 09:41:23;;;;;;;7.67;2.67;;;8.50;94.40;;;;;;5017145;28;20198;-83
2022/04/10 09:43:49;;;;;;;4.90;2.40;;;8.50;91.10;;;;;;5019786;28;20188;-80
2022/04/10 09:46:14;;;;;;;6.67;2.30;;;8.30;95.10;;;;;;5032286;28;20184;-79
2022/04/10 09:48:40;;;;;;;7.27;2.40;;;8.30;93.10;;;;;;5008250;28;20526;-78
2022/04/10 09:51:06;;;;;;;4.57;1.90;;;8.20;95.80;;;;;;5035450;28;20176;-79
2022/04/10 09:53:33;;;;;;;7.33;2.20;;;8.10;95.80;;;;;;5017513;28;20192;-80
2022/04/10 09:56:00;;;;;;;2.87;1.63;;;8.20;96.10;;;;;;5034606;28;20213;-81
2022/04/10 09:58:26;;;;;;;5.83;2.30;;;8.00;93.10;;;;;;5026621;28;20181;-80
2022/04/10 10:00:54;;;;;;;5.00;1.90;;;7.90;91.20;;;;;;5021701;28;20184;-79
2022/04/10 10:03:28;;;;;;;3.73;1.97;;;8.00;91.30;;;;;;5008339;28;20209;-82
2022/04/10 10:05:55;;;;;;;6.50;2.63;;;7.80;92.10;;;;;;5024339;28;20176;-79
2022/04/10 10:08:22;;;;;;;7.37;2.40;;;7.90;94.30;;;;;;5024684;28;20728;-80
2022/04/10 10:10:48;;;;;;;10.83;2.20;;;7.90;94.80;;;;;;5007804;28;20183;-79
2022/04/10 10:13:14;;;;;;;8.03;3.40;;;7.90;95.20;;;;;;5024660;28;20228;-80
2022/04/10 10:15:41;;;;;;;7.03;2.27;;;8.10;93.80;;;;;;4989094;28;20542;-81
2022/04/10 10:18:12;;;;;;;5.33;2.07;;;8.10;94.10;;;;;;5024178;28;20192;-78
2022/04/10 10:20:40;;;;;;;3.90;2.17;;;8.50;93.50;;;;;;5022958;28;20622;-81
2022/04/10 10:23:13;;;;;;;4.47;2.00;;;8.60;93.00;;;;;;5031992;28;20188;-80
2022/04/10 10:26:14;;;;;;;9.40;2.97;;;8.40;84.60;;;;;;5034087;28;20185;-79
2022/04/10 10:28:40;;;;;;;10.30;2.50;;;;;;;;;;5018363;28;20263;-79
2022/04/10 10:31:06;;;;;;;2.97;2.03;;;8.20;91.20;;;;;;5015208;28;20265;-79
2022/04/10 10:33:34;;;;;;;4.37;1.80;;;8.20;91.00;;;;;;4996751;28;20560;-79
2022/04/10 10:36:00;;;;;;;3.47;1.93;;;8.20;79.80;;;;;;4996805;28;20320;-79
2022/04/10 10:38:31;;;;;;;5.63;2.00;;;8.30;79.10;;;;;;5014604;28;20182;-79
2022/04/10 10:41:08;;;;;;;3.80;1.80;;;8.80;78.90;;;;;;5014055;28;20642;-79
2022/04/10 10:43:34;;;;;;;2.87;1.90;;;9.10;71.90;;;;;;4997148;28;20189;-80
2022/04/10 10:46:00;;;;;;;3.67;1.60;;;9.30;69.60;;;;;;5014072;28;20181;-79
2022/04/10 10:48:31;;;;;;;4.23;2.07;;;9.40;69.40;;;;;;5014792;28;20181;-80
2022/04/10 10:51:20;;;;;;;5.53;2.37;;;9.10;70.80;;;;;;4997144;28;20189;-81
2022/04/10 10:53:55;;;;;;;3.87;1.93;;;8.70;68.80;;;;;;5006235;28;20657;-79
2022/04/10 10:56:26;;;;;;;5.17;2.90;;;8.60;72.00;;;;;;5024728;28;20192;-80
2022/04/10 10:58:55;;;;;;;9.43;2.23;;;8.60;74.00;;;;;;5033594;28;20169;-80
2022/04/10 11:01:28;;;;;;;10.93;2.40;;;8.70;74.70;;;;;;5033979;28;20683;-80
2022/04/10 11:04:09;;;;;;;6.83;2.20;;;8.80;75.30;;;;;;5034154;28;20161;-79
2022/04/10 11:06:45;;;;;;;6.03;2.20;;;8.90;78.00;;;;;;5016342;28;20180;-80
2022/04/10 11:09:31;;;;;;;5.03;2.50;;;8.90;77.70;;;;;;5033572;28;20203;-80
2022/04/10 11:11:58;;;;;;;6.87;2.30;;;8.60;74.80;;;;;;5016304;28;20168;-79
2022/04/10 11:14:36;;;;;;;6.53;2.53;;;8.60;76.90;;;;;;5016380;28;20165;-80
2022/04/10 11:17:25;;;;;;;4.83;1.93;;;8.60;80.70;;;;;;5033857;28;20235;-81
2022/04/10 11:19:57;;;;;;;3.43;2.00;;;8.70;73.90;;;;;;5034177;28;20555;-81
2022/04/10 11:22:25;;;;;;;6.17;2.33;;;9.00;76.10;;;;;;5034109;28;20251;-80
2022/04/10 11:24:57;;;;;;;3.03;1.97;;;9.10;71.70;;;;;;5016427;28;20696;-83
2022/04/10 11:27:53;;;;;;;3.30;1.90;;;8.90;76.60;;;;;;5033964;28;20222;-80
2022/04/10 11:30:32;;;;;;;3.43;2.43;;;8.70;77.80;;;;;;5033865;28;20165;-79
2022/04/10 11:32:57;;;;;;;4.17;2.07;;;8.40;78.50;;;;;;5033922;28;20295;-81
2022/04/10 11:35:23;;;;;;;6.67;2.47;;;;;;;;;;5033822;28;20593;-80
2022/04/10 11:37:52;;;;;;;2.90;2.00;;;8.70;76.90;;;;;;5033892;28;20200;-80
2022/04/10 11:40:29;;;;;;;4.50;2.10;;;8.70;75.40;;;;;;5033534;28;20180;-78
2022/04/10 11:42:55;;;;;;;5.23;2.57;;;8.70;75.10;;;;;;5015910;28;20534;-82
2022/04/10 11:45:23;;;;;;;6.37;2.70;;;8.50;76.90;;;;;;5033744;28;20176;-80
2022/04/10 11:47:49;;;;;;;3.37;2.27;;;8.30;80.70;;;;;;5032566;28;20180;-80
2022/04/10 11:50:15;;;;;;;7.20;2.17;;;8.30;83.00;;;;;;5033342;28;20280;-80
2022/04/10 11:52:55;;;;;;;6.30;2.40;;;8.30;78.90;;;;;;5033651;28;20264;-80
2022/04/10 11:55:20;;;;;;;5.50;2.00;;;8.30;78.60;;;;;;5033382;28;20183;-81
2022/04/10 11:57:46;;;;;;;4.30;2.00;;;8.40;77.70;;;;;;5015455;28;20666;-81
2022/04/10 12:00:13;;;;;;;6.67;2.60;;;8.50;75.20;;;;;;5015284;28;20231;-80
2022/04/10 12:02:39;;;;;;;2.97;1.90;;;8.40;75.30;;;;;;5033417;28;20184;-81
2022/04/10 12:05:07;;;;;;;3.13;1.90;;;8.40;75.00;;;;;;5033147;28;20656;-80
2022/04/10 12:07:33;;;;;;;4.63;2.60;;;8.30;75.70;;;;;;5032171;28;20192;-80
2022/04/10 12:09:58;;;;;;;6.03;2.50;;;8.30;79.50;;;;;;5033045;28;20263;-82
2022/04/10 12:12:36;;;;;;;9.20;3.00;;;8.30;80.70;;;;;;5033837;28;20228;-80
2022/04/10 12:15:03;;;;;;;4.80;2.80;;;8.50;83.30;;;;;;5033305;28;20199;-80
2022/04/10 12:17:29;;;;;;;4.30;2.40;;;8.50;82.00;;;;;;5033147;28;20200;-80
2022/04/10 12:19:57;;;;;;;4.30;2.10;;;8.40;79.70;;;;;;5033541;28;20592;-80
2022/04/10 12:22:23;;;;;;;4.83;2.30;;;8.30;78.80;;;;;;5033252;28;20180;-77
2022/04/10 12:24:49;;;;;;;6.90;2.53;;;8.30;80.40;;;;;;5016392;28;20184;-81
2022/04/10 12:27:16;;;;;;;7.13;2.57;;;8.20;79.90;;;;;;5026221;28;20189;-81
2022/04/10 12:29:42;;;;;;;3.87;2.17;;;8.20;76.80;;;;;;5023641;28;20212;-80
2022/04/10 12:32:11;;;;;;;3.80;1.60;;;8.50;69.70;;;;;;5018494;28;20228;-81
2022/04/10 12:34:44;;;;;;;3.67;2.23;;;8.60;67.10;;;;;;5023832;28;20185;-80
2022/04/10 12:37:12;;;;;;;5.03;2.20;;;8.80;67.50;;;;;;5024418;28;20633;-80
2022/04/10 12:39:39;;;;;;;4.40;2.70;;;8.70;69.00;;;;;;5024218;28;20197;-80
2022/04/10 12:42:09;;;;;;;5.40;2.43;;;9.00;69.80;;;;;;5024552;28;20633;-81
2022/04/10 12:44:39;;;;;;;4.17;2.40;;;9.10;67.80;;;;;;5031321;28;20181;-80
2022/04/10 12:47:06;;;;;;;4.87;2.27;;;9.10;68.50;;;;;;5031215;28;20267;-80
2022/04/10 12:49:32;;;;;;;3.97;2.33;;;9.10;68.00;;;;;;5030373;28;20181;-82
2022/04/10 12:52:04;;;;;;;5.63;2.43;;;9.20;65.50;;;;;;4997579;28;20295;-83
2022/04/10 12:54:42;;;;;;;7.53;2.87;;;9.50;67.10;;;;;;5014764;28;20176;-83
2022/04/10 12:57:12;;;;;;;6.83;3.17;;;9.80;69.60;;;;;;5011662;28;20593;-82
2022/04/10 12:59:49;;;;;;;5.20;2.77;;;9.40;71.90;;;;;;5031731;28;20311;-81
2022/04/10 13:02:22;;;;;;;4.13;2.60;;;8.80;73.20;;;;;;5011987;28;20264;-80